sensor_id;sensor_type;location;lat;lon;timestamp;P1;durP1;ratioP1;P2;durP2;ratioP2
33268;SDS011;19640;50.944;5.260;2023-07-13T00:01:45;3.80;;;0.80;;
33268;SDS011;19640;50.944;5.260;2023-07-13T00:04:14;3.53;;;0.88;;
33268;SDS011;19640;50.944;5.260;2023-07-13T00:06:41;5.88;;;1.10;;
33268;SDS011;19640;50.944;5.260;2023-07-13T00:09:10;3.53;;;0.90;;
33268;SDS011;19640;50.944;5.260;2023-07-13T00:11:38;5.68;;;0.93;;
33268;SDS011;19640;50.944;5.260;2023-07-13T00:14:03;3.53;;;1.27;;
33268;SDS011;19640;50.944;5.260;2023-07-13T00:16:29;5.13;;;1.08;;
33268;SDS011;19640;50.944;5.260;2023-07-13T00:18:55;3.53;;;0.70;;
33268;SDS011;19640;50.944;5.260;2023-07-13T00:21:20;2.92;;;1.17;;
33268;SDS011;19640;50.944;5.260;2023-07-13T00:23:46;6.20;;;1.05;;
33268;SDS011;19640;50.944;5.260;2023-07-13T00:26:12;3.15;;;1.08;;
33268;SDS011;19640;50.944;5.260;2023-07-13T00:28:39;4.82;;;1.38;;
33268;SDS011;19640;50.944;5.260;2023-07-13T00:31:07;4.82;;;1.20;;
33268;SDS011;19640;50.944;5.260;2023-07-13T00:33:34;4.25;;;1.10;;
33268;SDS011;19640;50.944;5.260;2023-07-13T00:35:59;3.33;;;0.80;;
33268;SDS011;19640;50.944;5.260;2023-07-13T00:38:25;6.68;;;1.35;;
33268;SDS011;19640;50.944;5.260;2023-07-13T00:40:50;2.30;;;0.80;;
33268;SDS011;19640;50.944;5.260;2023-07-13T00:43:17;5.35;;;0.90;;
33268;SDS011;19640;50.944;5.260;2023-07-13T00:48:12;2.08;;;0.90;;
33268;SDS011;19640;50.944;5.260;2023-07-13T00:50:44;4.95;;;1.02;;
33268;SDS011;19640;50.944;5.260;2023-07-13T00:53:13;4.85;;;1.20;;
33268;SDS011;19640;50.944;5.260;2023-07-13T00:55:39;8.05;;;1.30;;
33268;SDS011;19640;50.944;5.260;2023-07-13T00:58:05;4.28;;;1.10;;
33268;SDS011;19640;50.944;5.260;2023-07-13T01:00:31;5.60;;;1.35;;
33268;SDS011;19640;50.944;5.260;2023-07-13T01:03:03;2.05;;;1.13;;
33268;SDS011;19640;50.944;5.260;2023-07-13T01:05:29;3.55;;;0.95;;
33268;SDS011;19640;50.944;5.260;2023-07-13T01:07:59;4.93;;;1.35;;
33268;SDS011;19640;50.944;5.260;2023-07-13T01:10:25;3.20;;;1.10;;
33268;SDS011;19640;50.944;5.260;2023-07-13T01:12:52;3.42;;;1.05;;
33268;SDS011;19640;50.944;5.260;2023-07-13T01:18:16;7.95;;;1.40;;
33268;SDS011;19640;50.944;5.260;2023-07-13T01:21:03;5.35;;;1.30;;
33268;SDS011;19640;50.944;5.260;2023-07-13T01:23:30;5.85;;;1.30;;
33268;SDS011;19640;50.944;5.260;2023-07-13T01:25:57;9.25;;;1.80;;
33268;SDS011;19640;50.944;5.260;2023-07-13T01:28:24;3.22;;;1.00;;
33268;SDS011;19640;50.944;5.260;2023-07-13T01:30:52;5.00;;;1.30;;
33268;SDS011;19640;50.944;5.260;2023-07-13T01:33:19;3.50;;;1.20;;
33268;SDS011;19640;50.944;5.260;2023-07-13T01:35:46;8.00;;;1.73;;
33268;SDS011;19640;50.944;5.260;2023-07-13T01:38:14;7.78;;;1.85;;
33268;SDS011;19640;50.944;5.260;2023-07-13T01:40:42;5.78;;;1.30;;
33268;SDS011;19640;50.944;5.260;2023-07-13T01:43:08;3.83;;;1.20;;
33268;SDS011;19640;50.944;5.260;2023-07-13T01:45:35;4.15;;;1.20;;
33268;SDS011;19640;50.944;5.260;2023-07-13T01:48:01;3.47;;;1.17;;
33268;SDS011;19640;50.944;5.260;2023-07-13T01:50:27;5.38;;;1.17;;
33268;SDS011;19640;50.944;5.260;2023-07-13T01:52:52;5.85;;;1.30;;
33268;SDS011;19640;50.944;5.260;2023-07-13T01:55:18;5.22;;;1.27;;
33268;SDS011;19640;50.944;5.260;2023-07-13T01:57:45;4.97;;;1.13;;
33268;SDS011;19640;50.944;5.260;2023-07-13T02:00:12;3.47;;;1.13;;
33268;SDS011;19640;50.944;5.260;2023-07-13T02:02:38;4.18;;;1.48;;
33268;SDS011;19640;50.944;5.260;2023-07-13T02:05:04;3.72;;;1.20;;
33268;SDS011;19640;50.944;5.260;2023-07-13T02:07:30;6.13;;;2.03;;
33268;SDS011;19640;50.944;5.260;2023-07-13T02:09:56;8.43;;;1.33;;
33268;SDS011;19640;50.944;5.260;2023-07-13T02:12:21;4.03;;;1.55;;
33268;SDS011;19640;50.944;5.260;2023-07-13T02:14:47;3.75;;;1.65;;
33268;SDS011;19640;50.944;5.260;2023-07-13T02:17:13;6.25;;;1.60;;
33268;SDS011;19640;50.944;5.260;2023-07-13T02:19:39;3.28;;;1.02;;
33268;SDS011;19640;50.944;5.260;2023-07-13T02:22:05;5.60;;;1.50;;
33268;SDS011;19640;50.944;5.260;2023-07-13T02:24:31;5.05;;;1.40;;
33268;SDS011;19640;50.944;5.260;2023-07-13T02:26:57;3.60;;;1.33;;
33268;SDS011;19640;50.944;5.260;2023-07-13T02:29:22;6.30;;;1.50;;
33268;SDS011;19640;50.944;5.260;2023-07-13T02:31:48;3.05;;;1.30;;
33268;SDS011;19640;50.944;5.260;2023-07-13T02:34:14;4.38;;;1.35;;
33268;SDS011;19640;50.944;5.260;2023-07-13T02:36:39;5.28;;;1.52;;
33268;SDS011;19640;50.944;5.260;2023-07-13T02:39:05;3.35;;;1.40;;
33268;SDS011;19640;50.944;5.260;2023-07-13T02:41:31;3.22;;;1.67;;
33268;SDS011;19640;50.944;5.260;2023-07-13T02:43:57;2.53;;;1.30;;
33268;SDS011;19640;50.944;5.260;2023-07-13T02:46:32;4.18;;;1.65;;
33268;SDS011;19640;50.944;5.260;2023-07-13T02:48:59;4.35;;;1.77;;
33268;SDS011;19640;50.944;5.260;2023-07-13T02:51:25;4.72;;;1.40;;
33268;SDS011;19640;50.944;5.260;2023-07-13T02:53:51;7.90;;;1.52;;
33268;SDS011;19640;50.944;5.260;2023-07-13T02:56:17;5.28;;;2.13;;
33268;SDS011;19640;50.944;5.260;2023-07-13T02:58:49;4.72;;;1.40;;
33268;SDS011;19640;50.944;5.260;2023-07-13T03:01:14;7.63;;;1.88;;
33268;SDS011;19640;50.944;5.260;2023-07-13T03:03:43;6.90;;;1.38;;
33268;SDS011;19640;50.944;5.260;2023-07-13T03:06:08;5.80;;;1.60;;
33268;SDS011;19640;50.944;5.260;2023-07-13T03:08:34;6.30;;;1.70;;
33268;SDS011;19640;50.944;5.260;2023-07-13T03:11:07;5.13;;;1.45;;
33268;SDS011;19640;50.944;5.260;2023-07-13T03:13:36;4.55;;;1.60;;
33268;SDS011;19640;50.944;5.260;2023-07-13T03:16:03;7.07;;;1.77;;
33268;SDS011;19640;50.944;5.260;2023-07-13T03:18:29;4.78;;;1.63;;
33268;SDS011;19640;50.944;5.260;2023-07-13T03:20:55;6.65;;;1.67;;
33268;SDS011;19640;50.944;5.260;2023-07-13T03:23:21;7.20;;;1.80;;
33268;SDS011;19640;50.944;5.260;2023-07-13T03:25:47;4.60;;;1.83;;
33268;SDS011;19640;50.944;5.260;2023-07-13T03:28:14;8.27;;;2.30;;
33268;SDS011;19640;50.944;5.260;2023-07-13T03:30:40;8.63;;;1.77;;
33268;SDS011;19640;50.944;5.260;2023-07-13T03:33:07;3.30;;;1.40;;
33268;SDS011;19640;50.944;5.260;2023-07-13T03:35:33;3.95;;;1.50;;
33268;SDS011;19640;50.944;5.260;2023-07-13T03:37:59;4.38;;;1.52;;
33268;SDS011;19640;50.944;5.260;2023-07-13T03:40:26;3.65;;;1.45;;
33268;SDS011;19640;50.944;5.260;2023-07-13T03:42:52;4.90;;;1.60;;
33268;SDS011;19640;50.944;5.260;2023-07-13T03:45:18;8.43;;;2.28;;
33268;SDS011;19640;50.944;5.260;2023-07-13T03:47:46;5.45;;;1.80;;
33268;SDS011;19640;50.944;5.260;2023-07-13T03:50:12;7.68;;;1.90;;
33268;SDS011;19640;50.944;5.260;2023-07-13T03:52:37;5.75;;;1.67;;
33268;SDS011;19640;50.944;5.260;2023-07-13T03:55:03;5.43;;;1.83;;
33268;SDS011;19640;50.944;5.260;2023-07-13T03:57:30;7.55;;;2.35;;
33268;SDS011;19640;50.944;5.260;2023-07-13T03:59:56;9.95;;;2.60;;
33268;SDS011;19640;50.944;5.260;2023-07-13T04:02:22;4.57;;;1.75;;
33268;SDS011;19640;50.944;5.260;2023-07-13T04:04:47;5.78;;;1.75;;
33268;SDS011;19640;50.944;5.260;2023-07-13T04:07:13;7.10;;;1.60;;
33268;SDS011;19640;50.944;5.260;2023-07-13T04:09:39;7.32;;;2.00;;
33268;SDS011;19640;50.944;5.260;2023-07-13T04:12:04;5.15;;;1.77;;
33268;SDS011;19640;50.944;5.260;2023-07-13T04:14:31;6.93;;;1.60;;
33268;SDS011;19640;50.944;5.260;2023-07-13T04:16:58;10.32;;;2.38;;
33268;SDS011;19640;50.944;5.260;2023-07-13T04:19:23;8.25;;;2.08;;
33268;SDS011;19640;50.944;5.260;2023-07-13T04:21:49;5.85;;;1.52;;
33268;SDS011;19640;50.944;5.260;2023-07-13T04:24:14;5.80;;;1.60;;
33268;SDS011;19640;50.944;5.260;2023-07-13T04:26:40;5.72;;;1.52;;
33268;SDS011;19640;50.944;5.260;2023-07-13T04:29:06;7.65;;;1.90;;
33268;SDS011;19640;50.944;5.260;2023-07-13T04:31:32;5.20;;;1.25;;
33268;SDS011;19640;50.944;5.260;2023-07-13T04:33:58;8.38;;;1.88;;
33268;SDS011;19640;50.944;5.260;2023-07-13T04:36:25;9.25;;;1.70;;
33268;SDS011;19640;50.944;5.260;2023-07-13T04:38:53;9.25;;;1.75;;
33268;SDS011;19640;50.944;5.260;2023-07-13T04:41:20;5.47;;;2.00;;
33268;SDS011;19640;50.944;5.260;2023-07-13T04:43:47;8.68;;;1.60;;
33268;SDS011;19640;50.944;5.260;2023-07-13T04:46:14;7.88;;;1.95;;
33268;SDS011;19640;50.944;5.260;2023-07-13T04:48:43;7.00;;;2.03;;
33268;SDS011;19640;50.944;5.260;2023-07-13T04:51:09;6.22;;;2.25;;
33268;SDS011;19640;50.944;5.260;2023-07-13T04:53:36;11.20;;;3.08;;
33268;SDS011;19640;50.944;5.260;2023-07-13T04:56:02;6.13;;;1.60;;
33268;SDS011;19640;50.944;5.260;2023-07-13T04:58:29;9.23;;;1.75;;
33268;SDS011;19640;50.944;5.260;2023-07-13T05:01:02;4.45;;;1.88;;
33268;SDS011;19640;50.944;5.260;2023-07-13T05:03:29;11.50;;;2.60;;
33268;SDS011;19640;50.944;5.260;2023-07-13T05:05:55;5.10;;;2.20;;
33268;SDS011;19640;50.944;5.260;2023-07-13T05:08:22;8.93;;;1.77;;
33268;SDS011;19640;50.944;5.260;2023-07-13T05:10:48;7.43;;;1.92;;
33268;SDS011;19640;50.944;5.260;2023-07-13T05:13:14;7.63;;;2.00;;
33268;SDS011;19640;50.944;5.260;2023-07-13T05:15:40;7.90;;;1.92;;
33268;SDS011;19640;50.944;5.260;2023-07-13T05:18:05;10.73;;;2.30;;
33268;SDS011;19640;50.944;5.260;2023-07-13T05:20:31;8.25;;;1.92;;
33268;SDS011;19640;50.944;5.260;2023-07-13T05:22:57;5.68;;;1.73;;
33268;SDS011;19640;50.944;5.260;2023-07-13T05:25:22;5.47;;;2.17;;
33268;SDS011;19640;50.944;5.260;2023-07-13T05:27:48;10.13;;;2.22;;
33268;SDS011;19640;50.944;5.260;2023-07-13T05:30:15;5.55;;;1.80;;
33268;SDS011;19640;50.944;5.260;2023-07-13T05:32:41;6.85;;;1.92;;
33268;SDS011;19640;50.944;5.260;2023-07-13T05:35:07;8.70;;;2.10;;
33268;SDS011;19640;50.944;5.260;2023-07-13T05:37:33;9.88;;;2.28;;
33268;SDS011;19640;50.944;5.260;2023-07-13T05:39:58;5.57;;;2.00;;
33268;SDS011;19640;50.944;5.260;2023-07-13T05:42:24;7.18;;;2.70;;
33268;SDS011;19640;50.944;5.260;2023-07-13T05:44:49;10.30;;;2.15;;
33268;SDS011;19640;50.944;5.260;2023-07-13T05:47:15;7.38;;;1.83;;
33268;SDS011;19640;50.944;5.260;2023-07-13T05:49:41;7.68;;;1.63;;
33268;SDS011;19640;50.944;5.260;2023-07-13T05:52:06;5.45;;;1.90;;
33268;SDS011;19640;50.944;5.260;2023-07-13T05:54:32;9.05;;;1.88;;
33268;SDS011;19640;50.944;5.260;2023-07-13T05:56:58;5.05;;;1.90;;
33268;SDS011;19640;50.944;5.260;2023-07-13T05:59:23;10.43;;;2.20;;
33268;SDS011;19640;50.944;5.260;2023-07-13T06:01:50;7.97;;;1.92;;
33268;SDS011;19640;50.944;5.260;2023-07-13T06:04:17;9.70;;;2.60;;
33268;SDS011;19640;50.944;5.260;2023-07-13T06:06:44;5.93;;;1.73;;
33268;SDS011;19640;50.944;5.260;2023-07-13T06:09:09;7.00;;;2.05;;
33268;SDS011;19640;50.944;5.260;2023-07-13T06:11:35;7.65;;;1.95;;
33268;SDS011;19640;50.944;5.260;2023-07-13T06:14:01;7.07;;;2.05;;
33268;SDS011;19640;50.944;5.260;2023-07-13T06:16:26;11.82;;;2.67;;
33268;SDS011;19640;50.944;5.260;2023-07-13T06:18:52;5.57;;;1.63;;
33268;SDS011;19640;50.944;5.260;2023-07-13T06:21:18;6.75;;;2.10;;
33268;SDS011;19640;50.944;5.260;2023-07-13T06:23:46;4.63;;;1.88;;
33268;SDS011;19640;50.944;5.260;2023-07-13T06:26:15;5.07;;;1.55;;
33268;SDS011;19640;50.944;5.260;2023-07-13T06:28:42;6.10;;;2.17;;
33268;SDS011;19640;50.944;5.260;2023-07-13T06:31:09;7.50;;;2.33;;
33268;SDS011;19640;50.944;5.260;2023-07-13T06:33:36;8.20;;;1.70;;
33268;SDS011;19640;50.944;5.260;2023-07-13T06:36:03;12.05;;;1.90;;
33268;SDS011;19640;50.944;5.260;2023-07-13T06:38:30;6.15;;;1.90;;
33268;SDS011;19640;50.944;5.260;2023-07-13T06:40:55;6.68;;;2.13;;
33268;SDS011;19640;50.944;5.260;2023-07-13T06:43:21;8.25;;;2.00;;
33268;SDS011;19640;50.944;5.260;2023-07-13T06:45:48;6.30;;;2.45;;
33268;SDS011;19640;50.944;5.260;2023-07-13T06:48:18;8.18;;;2.40;;
33268;SDS011;19640;50.944;5.260;2023-07-13T06:50:44;6.95;;;2.22;;
33268;SDS011;19640;50.944;5.260;2023-07-13T06:53:10;7.25;;;1.70;;
33268;SDS011;19640;50.944;5.260;2023-07-13T06:55:37;7.07;;;1.98;;
33268;SDS011;19640;50.944;5.260;2023-07-13T06:58:03;6.93;;;2.20;;
33268;SDS011;19640;50.944;5.260;2023-07-13T07:00:29;13.70;;;2.20;;
33268;SDS011;19640;50.944;5.260;2023-07-13T07:02:55;11.02;;;2.17;;
33268;SDS011;19640;50.944;5.260;2023-07-13T07:05:20;16.02;;;2.08;;
33268;SDS011;19640;50.944;5.260;2023-07-13T07:07:47;8.00;;;2.10;;
33268;SDS011;19640;50.944;5.260;2023-07-13T07:10:14;4.32;;;1.63;;
33268;SDS011;19640;50.944;5.260;2023-07-13T07:12:40;9.32;;;2.20;;
33268;SDS011;19640;50.944;5.260;2023-07-13T07:15:06;11.00;;;2.00;;
33268;SDS011;19640;50.944;5.260;2023-07-13T07:17:32;6.13;;;2.08;;
33268;SDS011;19640;50.944;5.260;2023-07-13T07:19:57;8.13;;;2.15;;
33268;SDS011;19640;50.944;5.260;2023-07-13T07:22:23;8.15;;;2.72;;
33268;SDS011;19640;50.944;5.260;2023-07-13T07:24:52;7.45;;;1.98;;
33268;SDS011;19640;50.944;5.260;2023-07-13T07:27:18;8.60;;;3.00;;
33268;SDS011;19640;50.944;5.260;2023-07-13T07:29:43;9.13;;;2.60;;
33268;SDS011;19640;50.944;5.260;2023-07-13T07:32:09;9.38;;;2.78;;
33268;SDS011;19640;50.944;5.260;2023-07-13T07:34:35;9.02;;;2.08;;
33268;SDS011;19640;50.944;5.260;2023-07-13T07:37:01;12.07;;;1.88;;
33268;SDS011;19640;50.944;5.260;2023-07-13T07:39:27;6.40;;;1.92;;
33268;SDS011;19640;50.944;5.260;2023-07-13T07:41:53;9.88;;;2.58;;
33268;SDS011;19640;50.944;5.260;2023-07-13T07:44:18;8.65;;;2.50;;
33268;SDS011;19640;50.944;5.260;2023-07-13T07:46:44;5.43;;;1.98;;
33268;SDS011;19640;50.944;5.260;2023-07-13T07:49:10;9.93;;;2.10;;
33268;SDS011;19640;50.944;5.260;2023-07-13T07:51:36;7.82;;;1.85;;
33268;SDS011;19640;50.944;5.260;2023-07-13T07:54:02;9.95;;;2.40;;
33268;SDS011;19640;50.944;5.260;2023-07-13T07:56:28;11.60;;;3.35;;
33268;SDS011;19640;50.944;5.260;2023-07-13T07:58:54;10.85;;;2.10;;
33268;SDS011;19640;50.944;5.260;2023-07-13T08:01:20;6.47;;;2.10;;
33268;SDS011;19640;50.944;5.260;2023-07-13T08:03:46;6.85;;;1.90;;
33268;SDS011;19640;50.944;5.260;2023-07-13T08:06:12;6.60;;;1.80;;
33268;SDS011;19640;50.944;5.260;2023-07-13T08:08:38;7.00;;;1.90;;
33268;SDS011;19640;50.944;5.260;2023-07-13T08:11:04;6.18;;;1.80;;
33268;SDS011;19640;50.944;5.260;2023-07-13T08:13:32;10.85;;;2.00;;
33268;SDS011;19640;50.944;5.260;2023-07-13T08:15:58;5.65;;;1.40;;
33268;SDS011;19640;50.944;5.260;2023-07-13T08:18:24;7.80;;;1.65;;
33268;SDS011;19640;50.944;5.260;2023-07-13T08:20:50;7.10;;;1.88;;
33268;SDS011;19640;50.944;5.260;2023-07-13T08:23:16;6.35;;;1.73;;
33268;SDS011;19640;50.944;5.260;2023-07-13T08:25:42;4.90;;;1.55;;
33268;SDS011;19640;50.944;5.260;2023-07-13T08:28:15;3.45;;;1.40;;
33268;SDS011;19640;50.944;5.260;2023-07-13T08:30:40;6.57;;;2.00;;
33268;SDS011;19640;50.944;5.260;2023-07-13T08:33:06;8.13;;;1.83;;
33268;SDS011;19640;50.944;5.260;2023-07-13T08:35:32;5.03;;;1.67;;
33268;SDS011;19640;50.944;5.260;2023-07-13T08:37:58;6.35;;;2.20;;
33268;SDS011;19640;50.944;5.260;2023-07-13T08:40:25;5.05;;;1.77;;
33268;SDS011;19640;50.944;5.260;2023-07-13T08:42:54;7.38;;;1.80;;
33268;SDS011;19640;50.944;5.260;2023-07-13T08:51:02;7.18;;;1.88;;
33268;SDS011;19640;50.944;5.260;2023-07-13T08:53:38;7.97;;;1.70;;
33268;SDS011;19640;50.944;5.260;2023-07-13T08:56:11;5.90;;;2.03;;
33268;SDS011;19640;50.944;5.260;2023-07-13T08:58:42;8.98;;;2.17;;
33268;SDS011;19640;50.944;5.260;2023-07-13T09:06:38;7.30;;;1.88;;
33268;SDS011;19640;50.944;5.260;2023-07-13T09:12:31;7.60;;;1.70;;
33268;SDS011;19640;50.944;5.260;2023-07-13T09:15:04;5.00;;;1.50;;
33268;SDS011;19640;50.944;5.260;2023-07-13T09:17:45;6.10;;;1.33;;
33268;SDS011;19640;50.944;5.260;2023-07-13T09:20:23;4.20;;;1.60;;
33268;SDS011;19640;50.944;5.260;2023-07-13T09:22:51;3.25;;;1.20;;
33268;SDS011;19640;50.944;5.260;2023-07-13T09:25:26;4.43;;;1.52;;
33268;SDS011;19640;50.944;5.260;2023-07-13T09:27:56;5.18;;;1.45;;
33268;SDS011;19640;50.944;5.260;2023-07-13T09:30:35;5.72;;;1.50;;
33268;SDS011;19640;50.944;5.260;2023-07-13T09:33:16;8.35;;;1.42;;
33268;SDS011;19640;50.944;5.260;2023-07-13T09:35:42;6.70;;;1.48;;
33268;SDS011;19640;50.944;5.260;2023-07-13T09:40:49;4.18;;;1.23;;
33268;SDS011;19640;50.944;5.260;2023-07-13T09:43:36;4.10;;;1.30;;
33268;SDS011;19640;50.944;5.260;2023-07-13T09:46:02;3.42;;;1.30;;
33268;SDS011;19640;50.944;5.260;2023-07-13T09:48:38;5.18;;;1.60;;
33268;SDS011;19640;50.944;5.260;2023-07-13T09:51:06;4.70;;;1.23;;
33268;SDS011;19640;50.944;5.260;2023-07-13T09:53:39;5.57;;;1.30;;
33268;SDS011;19640;50.944;5.260;2023-07-13T09:56:11;7.70;;;1.40;;
33268;SDS011;19640;50.944;5.260;2023-07-13T09:58:47;3.15;;;1.25;;
33268;SDS011;19640;50.944;5.260;2023-07-13T10:01:13;3.83;;;1.60;;
33268;SDS011;19640;50.944;5.260;2023-07-13T10:03:42;5.13;;;1.38;;
33268;SDS011;19640;50.944;5.260;2023-07-13T10:06:19;4.88;;;1.25;;
33268;SDS011;19640;50.944;5.260;2023-07-13T10:08:47;3.45;;;1.10;;
33268;SDS011;19640;50.944;5.260;2023-07-13T10:11:18;3.28;;;1.00;;
33268;SDS011;19640;50.944;5.260;2023-07-13T10:16:25;4.00;;;1.98;;
33268;SDS011;19640;50.944;5.260;2023-07-13T10:18:58;4.22;;;1.13;;
33268;SDS011;19640;50.944;5.260;2023-07-13T10:21:28;3.65;;;1.10;;
33268;SDS011;19640;50.944;5.260;2023-07-13T10:24:02;3.10;;;1.02;;
33268;SDS011;19640;50.944;5.260;2023-07-13T10:26:31;4.85;;;1.48;;
33268;SDS011;19640;50.944;5.260;2023-07-13T10:29:01;4.45;;;1.00;;
33268;SDS011;19640;50.944;5.260;2023-07-13T10:31:36;3.42;;;1.10;;
33268;SDS011;19640;50.944;5.260;2023-07-13T10:34:04;2.33;;;0.90;;
33268;SDS011;19640;50.944;5.260;2023-07-13T10:36:34;6.68;;;1.45;;
33268;SDS011;19640;50.944;5.260;2023-07-13T10:39:04;5.63;;;1.38;;
33268;SDS011;19640;50.944;5.260;2023-07-13T10:41:31;6.90;;;1.00;;
33268;SDS011;19640;50.944;5.260;2023-07-13T10:44:01;3.38;;;1.10;;
33268;SDS011;19640;50.944;5.260;2023-07-13T10:46:29;4.45;;;1.38;;
33268;SDS011;19640;50.944;5.260;2023-07-13T10:48:59;3.22;;;1.10;;
33268;SDS011;19640;50.944;5.260;2023-07-13T10:51:29;3.58;;;1.00;;
33268;SDS011;19640;50.944;5.260;2023-07-13T10:54:14;4.00;;;1.00;;
33268;SDS011;19640;50.944;5.260;2023-07-13T10:56:49;4.27;;;1.47;;
33268;SDS011;19640;50.944;5.260;2023-07-13T10:59:18;4.85;;;1.52;;
33268;SDS011;19640;50.944;5.260;2023-07-13T11:04:23;2.63;;;0.80;;
33268;SDS011;19640;50.944;5.260;2023-07-13T11:06:52;3.17;;;0.73;;
33268;SDS011;19640;50.944;5.260;2023-07-13T11:12:02;2.95;;;0.90;;
33268;SDS011;19640;50.944;5.260;2023-07-13T11:14:42;2.97;;;1.23;;
33268;SDS011;19640;50.944;5.260;2023-07-13T11:20:30;2.00;;;0.93;;
33268;SDS011;19640;50.944;5.260;2023-07-13T11:25:42;2.35;;;0.82;;
33268;SDS011;19640;50.944;5.260;2023-07-13T11:33:22;3.00;;;1.02;;
33268;SDS011;19640;50.944;5.260;2023-07-13T11:40:50;3.13;;;0.80;;
33268;SDS011;19640;50.944;5.260;2023-07-13T11:43:19;2.42;;;0.80;;
33268;SDS011;19640;50.944;5.260;2023-07-13T11:45:46;3.63;;;1.02;;
33268;SDS011;19640;50.944;5.260;2023-07-13T11:48:19;5.40;;;0.93;;
33268;SDS011;19640;50.944;5.260;2023-07-13T11:51:03;3.10;;;0.80;;
33268;SDS011;19640;50.944;5.260;2023-07-13T11:53:38;1.98;;;0.90;;
33268;SDS011;19640;50.944;5.260;2023-07-13T11:56:07;2.38;;;0.90;;
33268;SDS011;19640;50.944;5.260;2023-07-13T11:58:32;3.38;;;0.90;;
33268;SDS011;19640;50.944;5.260;2023-07-13T12:00:59;2.17;;;0.82;;
33268;SDS011;19640;50.944;5.260;2023-07-13T12:03:29;3.15;;;0.70;;
33268;SDS011;19640;50.944;5.260;2023-07-13T12:08:40;1.75;;;0.52;;
33268;SDS011;19640;50.944;5.260;2023-07-13T12:11:11;3.05;;;1.10;;
33268;SDS011;19640;50.944;5.260;2023-07-13T12:13:41;5.07;;;0.75;;
33268;SDS011;19640;50.944;5.260;2023-07-13T12:16:10;2.47;;;0.80;;
33268;SDS011;19640;50.944;5.260;2023-07-13T12:18:42;3.22;;;0.77;;
33268;SDS011;19640;50.944;5.260;2023-07-13T12:21:13;4.50;;;1.20;;
33268;SDS011;19640;50.944;5.260;2023-07-13T12:23:43;2.20;;;0.82;;
33268;SDS011;19640;50.944;5.260;2023-07-13T12:26:11;7.18;;;1.15;;
33268;SDS011;19640;50.944;5.260;2023-07-13T12:28:45;2.58;;;0.95;;
33268;SDS011;19640;50.944;5.260;2023-07-13T12:33:59;1.88;;;0.73;;
33268;SDS011;19640;50.944;5.260;2023-07-13T12:36:58;3.53;;;1.10;;
33268;SDS011;19640;50.944;5.260;2023-07-13T12:39:35;5.50;;;1.25;;
33268;SDS011;19640;50.944;5.260;2023-07-13T12:44:57;2.28;;;0.80;;
33268;SDS011;19640;50.944;5.260;2023-07-13T12:47:26;4.93;;;1.08;;
33268;SDS011;19640;50.944;5.260;2023-07-13T12:49:57;1.15;;;0.60;;
33268;SDS011;19640;50.944;5.260;2023-07-13T12:52:28;2.42;;;0.80;;
33268;SDS011;19640;50.944;5.260;2023-07-13T12:55:03;1.83;;;1.08;;
33268;SDS011;19640;50.944;5.260;2023-07-13T12:57:31;1.50;;;0.60;;
33268;SDS011;19640;50.944;5.260;2023-07-13T12:59:57;3.22;;;1.17;;
33268;SDS011;19640;50.944;5.260;2023-07-13T13:02:43;1.95;;;0.73;;
33268;SDS011;19640;50.944;5.260;2023-07-13T13:05:09;3.83;;;0.80;;
33268;SDS011;19640;50.944;5.260;2023-07-13T13:10:13;1.85;;;0.70;;
33268;SDS011;19640;50.944;5.260;2023-07-13T13:12:39;2.63;;;0.88;;
33268;SDS011;19640;50.944;5.260;2023-07-13T13:15:07;2.40;;;1.08;;
33268;SDS011;19640;50.944;5.260;2023-07-13T13:17:34;1.60;;;0.80;;
33268;SDS011;19640;50.944;5.260;2023-07-13T13:20:00;3.65;;;0.80;;
33268;SDS011;19640;50.944;5.260;2023-07-13T13:22:26;2.65;;;0.93;;
33268;SDS011;19640;50.944;5.260;2023-07-13T13:24:52;3.60;;;1.00;;
33268;SDS011;19640;50.944;5.260;2023-07-13T13:27:19;4.05;;;1.20;;
33268;SDS011;19640;50.944;5.260;2023-07-13T13:29:47;6.70;;;1.90;;
33268;SDS011;19640;50.944;5.260;2023-07-13T13:32:17;2.35;;;1.00;;
33268;SDS011;19640;50.944;5.260;2023-07-13T13:34:44;2.17;;;1.15;;
33268;SDS011;19640;50.944;5.260;2023-07-13T13:37:43;2.47;;;1.30;;
33268;SDS011;19640;50.944;5.260;2023-07-13T13:40:01;2.00;;;1.00;;
33268;SDS011;19640;50.944;5.260;2023-07-13T13:42:29;2.83;;;0.95;;
33268;SDS011;19640;50.944;5.260;2023-07-13T13:44:54;2.55;;;1.00;;
33268;SDS011;19640;50.944;5.260;2023-07-13T13:47:28;4.18;;;1.05;;
33268;SDS011;19640;50.944;5.260;2023-07-13T13:49:56;2.60;;;1.23;;
33268;SDS011;19640;50.944;5.260;2023-07-13T13:52:22;1.85;;;1.08;;
33268;SDS011;19640;50.944;5.260;2023-07-13T13:54:49;1.88;;;0.90;;
33268;SDS011;19640;50.944;5.260;2023-07-13T13:57:15;2.40;;;1.20;;
33268;SDS011;19640;50.944;5.260;2023-07-13T13:59:40;2.60;;;1.10;;
33268;SDS011;19640;50.944;5.260;2023-07-13T14:02:22;2.28;;;1.13;;
33268;SDS011;19640;50.944;5.260;2023-07-13T14:04:54;1.75;;;1.08;;
33268;SDS011;19640;50.944;5.260;2023-07-13T14:07:22;2.67;;;1.10;;
33268;SDS011;19640;50.944;5.260;2023-07-13T14:09:49;2.47;;;1.30;;
33268;SDS011;19640;50.944;5.260;2023-07-13T14:12:15;4.18;;;1.20;;
33268;SDS011;19640;50.944;5.260;2023-07-13T14:14:40;3.58;;;1.42;;
33268;SDS011;19640;50.944;5.260;2023-07-13T14:17:22;3.10;;;1.20;;
33268;SDS011;19640;50.944;5.260;2023-07-13T14:19:51;2.92;;;1.10;;
33268;SDS011;19640;50.944;5.260;2023-07-13T14:22:22;5.38;;;1.55;;
33268;SDS011;19640;50.944;5.260;2023-07-13T14:24:55;3.03;;;1.38;;
33268;SDS011;19640;50.944;5.260;2023-07-13T14:27:22;1.90;;;1.10;;
33268;SDS011;19640;50.944;5.260;2023-07-13T14:29:49;3.38;;;0.80;;
33268;SDS011;19640;50.944;5.260;2023-07-13T14:32:15;3.33;;;1.10;;
33268;SDS011;19640;50.944;5.260;2023-07-13T14:34:40;2.60;;;0.98;;
33268;SDS011;19640;50.944;5.260;2023-07-13T14:37:10;4.28;;;1.70;;
33268;SDS011;19640;50.944;5.260;2023-07-13T14:39:39;1.48;;;1.17;;
33268;SDS011;19640;50.944;5.260;2023-07-13T14:42:08;1.38;;;1.00;;
33268;SDS011;19640;50.944;5.260;2023-07-13T14:44:34;3.45;;;1.10;;
33268;SDS011;19640;50.944;5.260;2023-07-13T14:47:02;2.92;;;1.02;;
33268;SDS011;19640;50.944;5.260;2023-07-13T14:49:31;3.15;;;0.90;;
33268;SDS011;19640;50.944;5.260;2023-07-13T14:51:58;2.58;;;1.05;;
33268;SDS011;19640;50.944;5.260;2023-07-13T14:54:26;2.28;;;1.00;;
33268;SDS011;19640;50.944;5.260;2023-07-13T14:56:51;2.70;;;0.90;;
33268;SDS011;19640;50.944;5.260;2023-07-13T14:59:18;1.17;;;0.80;;
33268;SDS011;19640;50.944;5.260;2023-07-13T15:01:44;2.95;;;0.80;;
33268;SDS011;19640;50.944;5.260;2023-07-13T15:04:11;3.72;;;0.82;;
33268;SDS011;19640;50.944;5.260;2023-07-13T15:09:23;2.63;;;0.80;;
33268;SDS011;19640;50.944;5.260;2023-07-13T15:11:52;3.75;;;1.17;;
33268;SDS011;19640;50.944;5.260;2023-07-13T15:14:19;2.60;;;1.02;;
33268;SDS011;19640;50.944;5.260;2023-07-13T15:16:46;1.20;;;0.70;;
33268;SDS011;19640;50.944;5.260;2023-07-13T15:19:16;1.65;;;0.70;;
33268;SDS011;19640;50.944;5.260;2023-07-13T15:21:42;3.15;;;1.00;;
33268;SDS011;19640;50.944;5.260;2023-07-13T15:24:08;4.80;;;0.80;;
33268;SDS011;19640;50.944;5.260;2023-07-13T15:26:36;2.72;;;1.02;;
33268;SDS011;19640;50.944;5.260;2023-07-13T15:29:04;1.25;;;0.68;;
33268;SDS011;19640;50.944;5.260;2023-07-13T15:31:30;2.08;;;0.82;;
33268;SDS011;19640;50.944;5.260;2023-07-13T15:33:57;3.08;;;0.80;;
33268;SDS011;19640;50.944;5.260;2023-07-13T15:36:24;1.90;;;0.82;;
33268;SDS011;19640;50.944;5.260;2023-07-13T15:38:51;1.35;;;0.60;;
33268;SDS011;19640;50.944;5.260;2023-07-13T15:41:25;2.63;;;0.90;;
33268;SDS011;19640;50.944;5.260;2023-07-13T15:43:53;2.40;;;0.70;;
33268;SDS011;19640;50.944;5.260;2023-07-13T15:46:21;3.22;;;0.80;;
33268;SDS011;19640;50.944;5.260;2023-07-13T15:48:48;1.75;;;0.75;;
33268;SDS011;19640;50.944;5.260;2023-07-13T15:51:18;3.40;;;0.82;;
33268;SDS011;19640;50.944;5.260;2023-07-13T15:53:48;2.72;;;0.93;;